Time;durP1;ratioP1;P1;durP2;ratioP2;P2;SDS_P1;SDS_P2;PMS_P1;PMS_P2;Temp;Humidity;BMP_temperature;BMP_pressure;BME280_temperature;BME280_humidity;BME280_pressure;Samples;Min_cycle;Max_cycle;Signal;HPM_P1;HPM_P2
2022/03/27 00:01:44;;;;;;;2.27;2.07;;;;;;;;;;5067718;28;20198;-66
2022/03/27 00:04:12;;;;;;;2.57;2.20;;;;;;;;;;5039464;28;20205;-66
2022/03/27 00:06:39;;;;;;;2.27;2.00;;;;;;;;;;5067783;28;20609;-66
2022/03/27 00:09:06;;;;;;;3.07;2.30;;;;;;;;;;5067163;28;20186;-66
2022/03/27 00:11:34;;;;;;;2.40;2.20;;;;;;;;;;5069592;28;20194;-67
2022/03/27 00:14:07;;;;;;;2.90;2.40;;;;;;;;;;5069227;28;20189;-66
2022/03/27 00:16:35;;;;;;;2.63;2.10;;;;;;;;;;5069814;28;20641;-66
2022/03/27 00:19:03;;;;;;;2.13;2.03;;;;;;;;;;5046023;28;20205;-65
2022/03/27 00:21:30;;;;;;;2.33;2.10;;;;;;;;;;5066991;28;20268;-66
2022/03/27 00:23:57;;;;;;;2.00;1.90;;;;;;;;;;5068498;28;20209;-65
2022/03/27 00:26:24;;;;;;;2.10;1.90;;;;;;;;;;5069931;28;20214;-67
2022/03/27 00:28:52;;;;;;;2.33;1.90;;;;;;;;;;5040026;28;20253;-65
2022/03/27 00:31:19;;;;;;;2.10;1.90;;;;;;;;;;5063303;28;20186;-67
2022/03/27 00:33:47;;;;;;;2.03;1.87;;;;;;;;;;5069039;28;20182;-66
2022/03/27 00:36:15;;;;;;;2.20;1.93;;;;;;;;;;5068933;28;20189;-66
2022/03/27 00:38:43;;;;;;;3.70;2.03;;;;;;;;;;5069196;28;20251;-67
2022/03/27 00:41:10;;;;;;;2.23;2.03;;;;;;;;;;5063192;28;23359;-66
2022/03/27 00:43:39;;;;;;;1.90;1.80;;;;;;;;;;5068244;28;20198;-66
2022/03/27 00:46:07;;;;;;;2.03;1.87;;;;;;;;;;5068350;28;20573;-67
2022/03/27 00:48:34;;;;;;;2.53;2.10;;;;;;;;;;5069973;28;20206;-66
2022/03/27 00:51:01;;;;;;;2.00;1.90;;;;;;;;;;5065952;28;20206;-67
2022/03/27 00:53:29;;;;;;;2.40;2.20;;;;;;;;;;5046667;28;20720;-66
2022/03/27 00:55:56;;;;;;;1.90;1.70;;;;;;;;;;5073313;28;20255;-66
2022/03/27 00:58:23;;;;;;;2.23;2.03;;;;;;;;;;5073496;28;20600;-66
2022/03/27 01:00:56;;;;;;;1.73;1.63;;;;;;;;;;5067126;28;20844;-66
2022/03/27 01:03:25;;;;;;;2.53;2.00;;;;;;;;;;5046965;28;20612;-66
2022/03/27 01:05:54;;;;;;;2.23;1.77;;;;;;;;;;5064045;28;20205;-66
2022/03/27 01:11:19;;;;;;;2.03;1.83;;;;;;;;;;5065947;28;20528;-66
2022/03/27 01:13:56;;;;;;;2.60;2.17;;;;;;;;;;5063832;28;20216;-66
2022/03/27 01:16:32;;;;;;;1.90;1.80;;;;;;;;;;5072356;28;20881;-67
2022/03/27 01:19:00;;;;;;;2.03;1.83;;;;;;;;;;5066364;28;20185;-66
2022/03/27 01:21:27;;;;;;;2.27;1.90;;;;;;;;;;5066882;28;20201;-66
2022/03/27 01:23:55;;;;;;;2.83;2.00;;;;;;;;;;5068021;28;20205;-66
2022/03/27 01:26:24;;;;;;;2.33;1.67;;;;;;;;;;5065119;28;20202;-66
2022/03/27 01:28:56;;;;;;;2.30;1.73;;;;;;;;;;5047010;28;20639;-66
2022/03/27 01:31:30;;;;;;;1.53;1.43;;;;;;;;;;5057108;28;20650;-66
2022/03/27 01:34:00;;;;;;;2.00;1.43;;;;;;;;;;5068274;28;20194;-66
2022/03/27 01:36:34;;;;;;;2.00;1.70;;;;;;;;;;5073578;28;20215;-66
2022/03/27 01:39:10;;;;;;;2.53;1.60;;;;;;;;;;5048970;28;20279;-67
2022/03/27 01:41:41;;;;;;;1.70;1.60;;;;;;;;;;5068340;28;20225;-66
2022/03/27 01:44:17;;;;;;;1.60;1.50;;;;;;;;;;5045116;28;20275;-67
2022/03/27 01:47:01;;;;;;;1.80;1.40;;;;;;;;;;5066007;28;20241;-66
2022/03/27 01:49:34;;;;;;;1.97;1.57;;;;;;;;;;5047138;28;20238;-67
2022/03/27 01:52:05;;;;;;;1.33;1.23;;;;;;;;;;5074233;28;20221;-67
2022/03/27 01:54:35;;;;;;;1.57;1.47;;;;;;;;;;5067928;28;20209;-66
2022/03/27 01:57:09;;;;;;;1.73;1.63;;;;;;;;;;5069697;28;20197;-66
2022/03/27 01:59:41;;;;;;;2.03;1.80;;;;;;;;;;5059597;28;20605;-67
2022/03/27 02:02:24;;;;;;;1.60;1.50;;;;;;;;;;5054370;28;20266;-67
2022/03/27 02:04:56;;;;;;;1.47;1.37;;;;;;;;;;5064343;28;20655;-66
2022/03/27 02:07:27;;;;;;;1.93;1.73;;;;;;;;;;5073158;28;20209;-66
2022/03/27 02:09:57;;;;;;;2.50;1.77;;;;;;;;;;5067508;28;20192;-67
2022/03/27 02:12:28;;;;;;;2.00;1.90;;;;;;;;;;5070093;28;20210;-67
2022/03/27 02:15:00;;;;;;;1.67;1.30;;;;;;;;;;5061282;28;20220;-67
2022/03/27 02:17:31;;;;;;;2.30;1.40;;;;;;;;;;5066870;28;20694;-66
2022/03/27 02:20:07;;;;;;;1.70;1.50;;;;;;;;;;5067530;28;20201;-66
2022/03/27 02:22:40;;;;;;;1.40;1.30;;;;;;;;;;5069737;28;20185;-68
2022/03/27 02:25:12;;;;;;;1.40;1.30;;;;;;;;;;5061769;28;20198;-67
2022/03/27 02:27:43;;;;;;;1.50;1.40;;;;;;;;;;5052149;28;20245;-66
2022/03/27 02:30:15;;;;;;;1.57;1.47;;;;;;;;;;5066667;28;20202;-66
2022/03/27 02:32:47;;;;;;;2.03;1.30;;;;;;;;;;5049295;28;20541;-66
2022/03/27 02:35:16;;;;;;;1.60;1.50;;;;;;;;;;5064839;28;20859;-67
2022/03/27 02:37:47;;;;;;;1.50;1.40;;;;;;;;;;5067855;28;20220;-67
2022/03/27 02:40:16;;;;;;;1.77;1.50;;;;;;;;;;5067900;28;20659;-66
2022/03/27 02:42:45;;;;;;;1.47;1.20;;;;;;;;;;5067183;28;20189;-66
2022/03/27 02:45:14;;;;;;;1.70;1.60;;;;;;;;;;5064140;28;20212;-66
2022/03/27 02:47:45;;;;;;;2.03;1.83;;;;;;;;;;5061359;28;20278;-67
2022/03/27 02:50:18;;;;;;;1.60;1.47;;;;;;;;;;5060173;28;20202;-68
2022/03/27 02:52:48;;;;;;;1.77;1.57;;;;;;;;;;5073170;28;20221;-67
2022/03/27 02:55:20;;;;;;;1.57;1.40;;;;;;;;;;5051266;28;20232;-66
2022/03/27 02:57:49;;;;;;;2.03;1.77;;;;;;;;;;5061665;28;20940;-66
2022/03/27 03:00:23;;;;;;;1.50;1.40;;;;;;;;;;5070206;28;20331;-66
2022/03/27 03:02:53;;;;;;;2.00;1.80;;;;;;;;;;5054164;28;20220;-68
2022/03/27 03:05:21;;;;;;;1.53;1.43;;;;;;;;;;5071468;28;20209;-67
2022/03/27 03:07:50;;;;;;;1.87;1.47;;;;;;;;;;5070508;28;20217;-66
2022/03/27 03:10:17;;;;;;;1.73;1.37;;;;;;;;;;5068384;28;20186;-66
2022/03/27 03:12:45;;;;;;;2.53;1.83;;;;;;;;;;5068681;28;20197;-66
2022/03/27 03:15:12;;;;;;;1.50;1.30;;;;;;;;;;5060390;28;20310;-66
2022/03/27 03:17:39;;;;;;;2.83;1.90;;;;;;;;;;5067268;28;20202;-66
2022/03/27 03:20:07;;;;;;;1.60;1.50;;;;;;;;;;5067689;28;20197;-67
2022/03/27 03:22:35;;;;;;;2.03;1.43;;;;;;;;;;5066364;28;20220;-67
2022/03/27 03:25:03;;;;;;;2.00;1.80;;;;;;;;;;5056320;28;20212;-66
2022/03/27 03:27:30;;;;;;;1.70;1.60;;;;;;;;;;5069199;28;20213;-66
2022/03/27 03:29:57;;;;;;;1.70;1.60;;;;;;;;;;5071210;28;20181;-67
2022/03/27 03:32:25;;;;;;;1.70;1.53;;;;;;;;;;5066623;28;20263;-67
2022/03/27 03:34:52;;;;;;;1.83;1.67;;;;;;;;;;5065445;28;20244;-67
2022/03/27 03:37:19;;;;;;;1.57;1.47;;;;;;;;;;5069404;28;20263;-67
2022/03/27 03:39:47;;;;;;;1.97;1.57;;;;;;;;;;5066573;28;20197;-67
2022/03/27 03:42:14;;;;;;;1.83;1.73;;;;;;;;;;5065970;28;20251;-66
2022/03/27 03:44:41;;;;;;;2.13;1.63;;;;;;;;;;5072955;28;20225;-67
2022/03/27 03:47:09;;;;;;;1.53;1.43;;;;;;;;;;5063644;28;20223;-66
2022/03/27 03:49:36;;;;;;;2.10;1.60;;;;;;;;;;5064451;28;20266;-67
2022/03/27 03:52:04;;;;;;;2.00;1.67;;;;;;;;;;5065508;28;20222;-66
2022/03/27 03:54:31;;;;;;;2.37;1.83;;;;;;;;;;5064426;28;20224;-67
2022/03/27 03:56:58;;;;;;;2.40;1.83;;;;;;;;;;5062919;28;20605;-67
2022/03/27 03:59:25;;;;;;;1.83;1.70;;;;;;;;;;5068894;28;20267;-67
2022/03/27 04:01:56;;;;;;;1.53;1.40;;;;;;;;;;5061759;28;20902;-67
2022/03/27 04:04:24;;;;;;;1.63;1.53;;;;;;;;;;5066354;28;20193;-67
2022/03/27 04:06:51;;;;;;;2.40;1.60;;;;;;;;;;5040410;28;20205;-67
2022/03/27 04:09:20;;;;;;;2.00;1.90;;;;;;;;;;5055647;28;20221;-67
2022/03/27 04:11:47;;;;;;;1.93;1.73;;;;;;;;;;5048347;28;20208;-67
2022/03/27 04:14:14;;;;;;;2.50;2.10;;;;;;;;;;5065856;28;20229;-67
2022/03/27 04:16:41;;;;;;;2.20;1.90;;;;;;;;;;5064570;28;20190;-66
2022/03/27 04:19:09;;;;;;;1.97;1.60;;;;;;;;;;5063748;28;20204;-66
2022/03/27 04:21:36;;;;;;;1.70;1.60;;;;;;;;;;5035038;28;20517;-67
2022/03/27 04:24:03;;;;;;;1.87;1.77;;;;;;;;;;5065616;28;20309;-67
2022/03/27 04:26:32;;;;;;;1.97;1.80;;;;;;;;;;5061779;28;20225;-66
2022/03/27 04:28:59;;;;;;;2.30;2.10;;;;;;;;;;5067666;28;20995;-67
2022/03/27 04:31:28;;;;;;;1.70;1.50;;;;;;;;;;5068426;28;20190;-67
2022/03/27 04:33:56;;;;;;;2.33;2.00;;;;;;;;;;5070098;28;20204;-67
2022/03/27 04:36:23;;;;;;;2.40;2.10;;;;;;;;;;5068154;28;20515;-67
2022/03/27 04:38:50;;;;;;;2.33;2.13;;;;;;;;;;5061883;28;20202;-65
2022/03/27 04:41:18;;;;;;;2.30;2.10;;;;;;;;;;5068197;28;20194;-66
2022/03/27 04:43:47;;;;;;;2.67;2.00;;;;;;;;;;5069108;28;20232;-66
2022/03/27 04:46:18;;;;;;;2.23;2.00;;;;;;;;;;5068361;28;20202;-66
2022/03/27 04:48:46;;;;;;;2.00;1.90;;;;;;;;;;5068635;28;20217;-68
2022/03/27 04:51:16;;;;;;;2.30;2.10;;;;;;;;;;5055133;28;20572;-67
2022/03/27 04:53:47;;;;;;;2.83;2.33;;;;;;;;;;5051004;28;20200;-66
2022/03/27 04:56:19;;;;;;;2.43;2.13;;;;;;;;;;5068854;28;20193;-67
2022/03/27 04:58:50;;;;;;;2.30;2.10;;;;;;;;;;5050526;28;20194;-66
2022/03/27 05:01:20;;;;;;;2.43;2.23;;;;;;;;;;5063009;28;20267;-66
2022/03/27 05:03:53;;;;;;;2.30;2.10;;;;;;;;;;5030854;28;20296;-66
2022/03/27 05:06:21;;;;;;;2.50;2.30;;;;;;;;;;5049806;28;20205;-66
2022/03/27 05:08:51;;;;;;;2.53;2.33;;;;;;;;;;5070935;28;20221;-66
2022/03/27 05:11:21;;;;;;;2.37;2.17;;;;;;;;;;5077092;28;20194;-66
2022/03/27 05:13:52;;;;;;;2.30;2.07;;;;;;;;;;5067942;28;20234;-67
2022/03/27 05:16:21;;;;;;;2.90;2.53;;;;;;;;;;5076213;28;20242;-66
2022/03/27 05:18:49;;;;;;;2.57;2.37;;;;;;;;;;5050700;28;20202;-67
2022/03/27 05:21:17;;;;;;;2.60;2.30;;;;;;;;;;5059209;28;20186;-66
2022/03/27 05:23:48;;;;;;;2.40;2.20;;;;;;;;;;5068275;28;20201;-66
2022/03/27 05:26:16;;;;;;;3.10;2.73;;;;;;;;;;5075224;28;20214;-66
2022/03/27 05:28:47;;;;;;;3.17;2.97;;;;;;;;;;5067997;28;20338;-66
2022/03/27 05:31:20;;;;;;;2.57;2.37;;;;;;;;;;5070983;28;20197;-66
2022/03/27 05:33:51;;;;;;;2.40;2.20;;;;;;;;;;5068424;28;20209;-66
2022/03/27 05:36:18;;;;;;;3.03;2.50;;;;;;;;;;5068120;28;20243;-68
2022/03/27 05:38:47;;;;;;;2.90;2.60;;;;;;;;;;5058064;28;20209;-66
2022/03/27 05:41:18;;;;;;;2.77;2.57;;;;;;;;;;5061700;28;20194;-67
2022/03/27 05:43:47;;;;;;;2.50;2.30;;;;;;;;;;5068088;28;20681;-66
2022/03/27 05:46:21;;;;;;;2.60;2.40;;;;;;;;;;5067943;28;20201;-67
2022/03/27 05:48:50;;;;;;;2.60;2.40;;;;;;;;;;5065515;28;20239;-66
2022/03/27 05:51:24;;;;;;;2.60;2.40;;;;;;;;;;5065443;28;20328;-67
2022/03/27 05:53:54;;;;;;;3.03;2.73;;;;;;;;;;5068028;28;20193;-66
2022/03/27 05:56:23;;;;;;;2.57;2.37;;;;;;;;;;5078321;28;20205;-66
2022/03/27 05:58:56;;;;;;;2.63;2.43;;;;;;;;;;5065809;28;20273;-67
2022/03/27 06:01:26;;;;;;;2.53;2.33;;;;;;;;;;5064274;28;20214;-66
2022/03/27 06:03:59;;;;;;;3.30;3.00;;;;;;;;;;5067786;28;20194;-67
2022/03/27 06:06:29;;;;;;;2.80;2.50;;;;;;;;;;5058267;28;20216;-67
2022/03/27 06:09:00;;;;;;;2.87;2.67;;;;;;;;;;5065169;28;20214;-67
2022/03/27 06:11:29;;;;;;;2.80;2.57;;;;;;;;;;5075495;28;20216;-67
2022/03/27 06:14:01;;;;;;;3.07;2.87;;;;;;;;;;5063382;28;20205;-67
2022/03/27 06:16:36;;;;;;;2.70;2.50;;;;;;;;;;5066815;28;21460;-67
2022/03/27 06:19:07;;;;;;;3.00;2.70;;;;;;;;;;5047331;28;20205;-67
2022/03/27 06:21:46;;;;;;;3.20;2.90;;;;;;;;;;5044649;28;20725;-67
2022/03/27 06:24:33;;;;;;;5.87;3.17;;;;;;;;;;5064919;28;20213;-68
2022/03/27 06:27:04;;;;;;;3.03;2.83;;;;;;;;;;5041273;28;20693;-67
2022/03/27 06:29:37;;;;;;;3.90;3.60;;;;;;;;;;5066955;28;20220;-67
2022/03/27 06:32:09;;;;;;;3.07;2.80;;;;;;;;;;5049411;28;20198;-67
2022/03/27 06:34:42;;;;;;;3.60;3.30;;;;;;;;;;5045800;28;20300;-67
2022/03/27 06:37:11;;;;;;;3.47;3.17;;;;;;;;;;5053570;28;20773;-67
2022/03/27 06:39:42;;;;;;;2.57;2.37;;;;;;;;;;5055787;28;20189;-67
2022/03/27 06:42:12;;;;;;;3.43;3.13;;;;;;;;;;5067111;28;20213;-67
2022/03/27 06:44:43;;;;;;;3.50;3.20;;;;;;;;;;5067297;28;20213;-67
2022/03/27 06:47:15;;;;;;;3.30;3.00;;;;;;;;;;5052881;28;20217;-66
2022/03/27 06:49:44;;;;;;;2.80;2.60;;;;;;;;;;5034203;28;20245;-66
2022/03/27 06:52:12;;;;;;;3.07;2.87;;;;;;;;;;5066457;28;20613;-67
2022/03/27 06:54:39;;;;;;;2.83;2.53;;;;;;;;;;5066588;28;20197;-67
2022/03/27 06:57:06;;;;;;;3.10;2.80;;;;;;;;;;5063953;28;20198;-66
2022/03/27 07:05:13;;;;;;;2.87;2.60;;;;;;;;;;5052866;28;20188;-67
2022/03/27 07:07:44;;;;;;;2.80;2.60;;;;;;;;;;5050580;28;20633;-67
2022/03/27 07:10:13;;;;;;;3.00;2.70;;;;;;;;;;5066771;28;20636;-67
2022/03/27 07:12:42;;;;;;;2.90;2.70;;;;;;;;;;5038193;28;20210;-67
2022/03/27 07:15:16;;;;;;;2.97;2.77;;;;;;;;;;5060479;28;20396;-66
2022/03/27 07:17:51;;;;;;;3.30;3.03;;;;;;;;;;5052404;28;20592;-67
2022/03/27 07:20:27;;;;;;;3.30;3.00;;;;;;;;;;5037139;28;20869;-68
2022/03/27 07:23:10;;;;;;;2.77;2.57;;;;;;;;;;5046940;28;20197;-67
2022/03/27 07:25:42;;;;;;;2.77;2.43;;;;;;;;;;5061803;28;20223;-67
2022/03/27 07:28:18;;;;;;;3.00;2.70;;;;;;;;;;5047880;28;20209;-68
2022/03/27 07:30:47;;;;;;;2.80;2.60;;;;;;;;;;5048691;28;20278;-68
2022/03/27 07:33:21;;;;;;;3.10;2.90;;;;;;;;;;5029668;28;20361;-68
2022/03/27 07:35:53;;;;;;;4.23;2.77;;;;;;;;;;5066292;28;20611;-67
2022/03/27 07:38:23;;;;;;;2.80;2.60;;;;;;;;;;5065160;28;20212;-67
2022/03/27 07:40:50;;;;;;;2.90;2.70;;;;;;;;;;5030739;28;20670;-67
2022/03/27 07:43:17;;;;;;;2.97;2.77;;;;;;;;;;5059456;28;20201;-67
2022/03/27 07:45:45;;;;;;;2.70;2.50;;;;;;;;;;5067433;28;20294;-67
2022/03/27 07:48:12;;;;;;;3.03;2.77;;;;;;;;;;5065413;28;20202;-68
2022/03/27 07:50:39;;;;;;;2.90;2.60;;;;;;;;;;5064879;28;20669;-67
2022/03/27 07:53:06;;;;;;;3.27;2.70;;;;;;;;;;5063037;28;20240;-67
2022/03/27 07:55:34;;;;;;;2.77;2.57;;;;;;;;;;5061951;28;20780;-68
2022/03/27 07:58:01;;;;;;;3.10;2.90;;;;;;;;;;5065210;28;20689;-67
2022/03/27 08:00:28;;;;;;;3.20;2.90;;;;;;;;;;5064873;28;20229;-68
2022/03/27 08:02:56;;;;;;;2.43;2.23;;;;;;;;;;5061826;28;20280;-67
2022/03/27 08:05:24;;;;;;;3.00;2.70;;;;;;;;;;5061388;28;20205;-68
2022/03/27 08:07:52;;;;;;;3.13;2.73;;;;;;;;;;5068682;28;20724;-66
2022/03/27 08:10:19;;;;;;;3.90;2.53;;;;;;;;;;5069344;28;20221;-66
2022/03/27 08:12:46;;;;;;;3.40;2.90;;;;;;;;;;5059008;28;20197;-68
2022/03/27 08:15:14;;;;;;;3.40;3.10;;;;;;;;;;5063331;28;20635;-67
2022/03/27 08:17:47;;;;;;;3.60;3.30;;;;;;;;;;5068518;28;20189;-68
2022/03/27 08:20:14;;;;;;;3.50;3.20;;;;;;;;;;5066583;28;20189;-68
2022/03/27 08:22:43;;;;;;;9.10;3.17;;;;;;;;;;5068194;28;20201;-67
2022/03/27 08:25:12;;;;;;;3.30;3.00;;;;;;;;;;5060710;28;20201;-68
2022/03/27 08:27:39;;;;;;;3.43;3.10;;;;;;;;;;5064965;28;20189;-68
2022/03/27 08:30:07;;;;;;;3.10;2.80;;;;;;;;;;5064632;28;20222;-67
2022/03/27 08:32:34;;;;;;;3.93;3.60;;;;;;;;;;5067129;28;20197;-68
2022/03/27 08:35:07;;;;;;;4.43;3.80;;;;;;;;;;5063975;28;20202;-68
2022/03/27 08:37:34;;;;;;;3.90;3.43;;;;;;;;;;5058804;28;20225;-69
2022/03/27 08:40:01;;;;;;;4.07;3.67;;;;;;;;;;5064941;28;20278;-67
2022/03/27 08:42:28;;;;;;;3.53;3.23;;;;;;;;;;5066874;28;20575;-68
2022/03/27 08:44:55;;;;;;;4.10;3.70;;;;;;;;;;5042462;28;20201;-67
2022/03/27 08:47:28;;;;;;;3.80;3.50;;;;;;;;;;5049113;28;20209;-68
2022/03/27 08:50:13;;;;;;;4.50;4.10;;;;;;;;;;5062389;28;20229;-68
2022/03/27 08:52:42;;;;;;;4.47;3.60;;;;;;;;;;5065243;28;20245;-67
2022/03/27 08:55:16;;;;;;;4.70;4.30;;;;;;;;;;5063717;28;20255;-67
2022/03/27 08:57:55;;;;;;;5.80;4.83;;;;;;;;;;5064072;28;20201;-68
2022/03/27 09:00:23;;;;;;;5.37;4.30;;;;;;;;;;5063155;28;20194;-68
2022/03/27 09:02:55;;;;;;;5.07;4.63;;;;;;;;;;5058432;28;20210;-68
2022/03/27 09:05:27;;;;;;;5.17;4.77;;;;;;;;;;5066061;28;20567;-68
2022/03/27 09:07:55;;;;;;;4.70;4.20;;;;;;;;;;5065694;28;20839;-68
2022/03/27 09:10:23;;;;;;;5.17;4.67;;;;;;;;;;5060845;28;20831;-68
2022/03/27 09:12:53;;;;;;;4.77;4.37;;;;;;;;;;5059772;28;20190;-68
2022/03/27 09:15:20;;;;;;;5.23;4.73;;;;;;;;;;5046324;28;20596;-68
2022/03/27 09:17:58;;;;;;;4.73;4.23;;;;;;;;;;5066438;28;20248;-67
2022/03/27 09:20:33;;;;;;;4.40;4.00;;;;;;;;;;5064959;28;20634;-68
2022/03/27 09:23:14;;;;;;;5.30;4.70;;;;;;;;;;5062543;28;20242;-67
2022/03/27 09:25:51;;;;;;;5.53;5.03;;;;;;;;;;5062696;28;20228;-67
2022/03/27 09:28:22;;;;;;;5.10;4.60;;;;;;;;;;5066112;28;20212;-68
2022/03/27 09:30:50;;;;;;;5.53;4.57;;;;;;;;;;5066478;28;20198;-67
2022/03/27 09:33:49;;;;;;;4.67;4.27;;;;;;;;;;5065692;28;20238;-67
2022/03/27 09:36:18;;;;;;;5.10;4.60;;;;;;;;;;5006091;28;20205;-67
2022/03/27 09:38:58;;;;;;;5.33;4.83;;;;;;;;;;5063791;28;20209;-68
2022/03/27 09:41:30;;;;;;;5.47;4.97;;;;;;;;;;5058290;28;20197;-67
2022/03/27 09:44:01;;;;;;;5.20;4.70;;;;;;;;;;5051495;28;20214;-68
2022/03/27 09:46:45;;;;;;;6.17;5.57;;;;;;;;;;5063890;28;20599;-67
2022/03/27 09:49:12;;;;;;;6.10;5.47;;;;;;;;;;5069822;28;20257;-68
2022/03/27 09:51:59;;;;;;;5.43;4.93;;;;;;;;;;5075744;28;20620;-68
2022/03/27 09:54:28;;;;;;;5.23;4.73;;;;;;;;;;5071275;28;20193;-68
2022/03/27 09:56:56;;;;;;;6.33;5.33;;;;;;;;;;5063961;28;20630;-67
2022/03/27 09:59:27;;;;;;;6.17;5.50;;;;;;;;;;5068821;28;20792;-67
2022/03/27 10:01:54;;;;;;;6.27;5.67;;;;;;;;;;5063365;28;20213;-67
2022/03/27 10:04:21;;;;;;;5.20;4.70;;;;;;;;;;5065980;28;20194;-67
2022/03/27 10:06:49;;;;;;;6.10;5.50;;;;;;;;;;5065179;28;20198;-67
2022/03/27 10:09:16;;;;;;;6.03;5.43;;;;;;;;;;5064141;28;20600;-67
2022/03/27 10:11:43;;;;;;;6.03;5.43;;;;;;;;;;5066491;28;20205;-67
2022/03/27 10:14:10;;;;;;;5.80;5.30;;;;;;;;;;5064145;28;20278;-66
2022/03/27 10:16:43;;;;;;;5.70;5.17;;;;;;;;;;5065906;28;20469;-67
2022/03/27 10:19:19;;;;;;;6.43;5.33;;;;;;;;;;5064098;28;20202;-68
2022/03/27 10:21:47;;;;;;;5.20;4.80;;;;;;;;;;5058070;28;20601;-67
2022/03/27 10:24:15;;;;;;;5.50;5.00;;;;;;;;;;5066284;28;20591;-66
2022/03/27 10:26:46;;;;;;;4.80;4.40;;;;;;;;;;5069414;28;20639;-70
2022/03/27 10:29:14;;;;;;;10.60;5.33;;;;;;;;;;5063872;28;20739;-67
2022/03/27 10:31:42;;;;;;;4.90;4.30;;;;;;;;;;5066226;28;20532;-67
2022/03/27 10:34:10;;;;;;;9.87;4.57;;;;;;;;;;5066532;28;20791;-67
2022/03/27 10:36:41;;;;;;;9.30;4.53;;;;;;;;;;5065909;28;20205;-68
2022/03/27 10:39:14;;;;;;;5.07;4.10;;;;;;;;;;5059676;28;20827;-67
2022/03/27 10:41:50;;;;;;;5.33;4.83;;;;;;;;;;5063679;28;20661;-67
2022/03/27 10:44:37;;;;;;;7.13;4.33;;;;;;;;;;5064013;28;20201;-67
2022/03/27 10:47:17;;;;;;;5.73;4.70;;;;;;;;;;5062819;28;20615;-67
2022/03/27 10:50:08;;;;;;;5.47;4.90;;;;;;;;;;5060434;28;20237;-67
2022/03/27 10:52:41;;;;;;;5.43;4.60;;;;;;;;;;5059795;28;20240;-66
2022/03/27 10:55:09;;;;;;;8.30;5.07;;;;;;;;;;5037961;28;20209;-65
2022/03/27 10:57:51;;;;;;;9.70;5.20;;;;;;;;;;5062226;28;20194;-65
2022/03/27 11:00:40;;;;;;;6.20;4.90;;;;;;;;;;5039436;28;20204;-68
2022/03/27 11:03:31;;;;;;;5.70;4.90;;;;;;;;;;5035590;28;20198;-67
2022/03/27 11:06:04;;;;;;;6.00;5.40;;;;;;;;;;5061776;28;20202;-65
2022/03/27 11:08:37;;;;;;;5.93;5.27;;;;;;;;;;5063093;28;20198;-65
2022/03/27 11:11:06;;;;;;;6.27;5.60;;;;;;;;;;5042764;28;20225;-65
2022/03/27 11:13:36;;;;;;;7.13;5.97;;;;;;;;;;5058132;28;20221;-64
2022/03/27 11:16:09;;;;;;;7.00;6.30;;;;;;;;;;5058532;28;20201;-64
2022/03/27 11:18:44;;;;;;;7.13;5.87;;;;;;;;;;5064447;28;20220;-65
2022/03/27 11:21:15;;;;;;;7.30;5.80;;;;;;;;;;5062041;28;20255;-65
2022/03/27 11:23:49;;;;;;;8.37;6.83;;;;;;;;;;5063871;28;20205;-66
2022/03/27 11:26:31;;;;;;;6.60;5.70;;;;;;;;;;5042248;28;20217;-64
2022/03/27 11:29:05;;;;;;;7.13;6.43;;;;;;;;;;5062043;28;20245;-65
2022/03/27 11:31:34;;;;;;;6.63;5.90;;;;;;;;;;5040025;28;20214;-64
2022/03/27 11:34:17;;;;;;;7.00;6.37;;;;;;;;;;5058622;28;20202;-65
2022/03/27 11:37:12;;;;;;;7.87;7.07;;;;;;;;;;5057248;28;20205;-64
2022/03/27 11:39:40;;;;;;;7.67;6.40;;;;;;;;;;5065296;28;20194;-65
2022/03/27 11:42:26;;;;;;;6.90;6.20;;;;;;;;;;5066506;28;20236;-68
2022/03/27 11:45:10;;;;;;;7.33;6.60;;;;;;;;;;5059840;28;20204;-67
2022/03/27 11:47:49;;;;;;;6.93;6.03;;;;;;;;;;5061322;28;20193;-67
2022/03/27 11:50:34;;;;;;;7.57;6.77;;;;;;;;;;5041084;28;20324;-66
2022/03/27 11:53:04;;;;;;;7.47;6.57;;;;;;;;;;5042384;28;20234;-65
2022/03/27 11:55:47;;;;;;;7.33;6.63;;;;;;;;;;5043261;28;20287;-67
2022/03/27 11:58:20;;;;;;;7.77;6.43;;;;;;;;;;5043056;28;20194;-68
2022/03/27 12:00:48;;;;;;;6.80;6.10;;;;;;;;;;5029748;28;20194;-64
2022/03/27 12:03:23;;;;;;;8.30;7.23;;;;;;;;;;5037968;28;20228;-66
2022/03/27 12:06:03;;;;;;;7.17;6.47;;;;;;;;;;5046465;28;20198;-67
2022/03/27 12:08:36;;;;;;;6.87;6.27;;;;;;;;;;5041088;28;20855;-68
2022/03/27 12:11:07;;;;;;;7.47;6.77;;;;;;;;;;5040868;28;20242;-68
2022/03/27 12:13:40;;;;;;;8.07;7.30;;;;;;;;;;5042732;28;20194;-68
2022/03/27 12:16:25;;;;;;;7.27;6.57;;;;;;;;;;5038290;28;20206;-65
2022/03/27 12:18:53;;;;;;;6.80;6.20;;;;;;;;;;5042819;28;20216;-66
2022/03/27 12:21:24;;;;;;;8.33;7.53;;;;;;;;;;5047835;28;20201;-68
2022/03/27 12:24:04;;;;;;;7.63;6.93;;;;;;;;;;5047094;28;20194;-67
2022/03/27 12:29:42;;;;;;;8.37;6.80;;;;;;;;;;5045141;28;20709;-66
2022/03/27 12:32:12;;;;;;;7.43;6.60;;;;;;;;;;5030759;28;20241;-65
2022/03/27 12:34:44;;;;;;;7.53;6.67;;;;;;;;;;5036631;28;20199;-67
2022/03/27 12:37:16;;;;;;;8.30;7.50;;;;;;;;;;5046013;28;20196;-66
2022/03/27 12:39:50;;;;;;;7.27;6.57;;;;;;;;;;5045593;28;20214;-67
2022/03/27 12:42:39;;;;;;;7.70;6.20;;;;;;;;;;5044467;28;20335;-64
2022/03/27 12:45:12;;;;;;;7.37;6.67;;;;;;;;;;5046626;28;20186;-66
2022/03/27 12:47:43;;;;;;;6.60;5.90;;;;;;;;;;5052174;28;20186;-65
2022/03/27 12:50:14;;;;;;;7.77;6.47;;;;;;;;;;5030288;28;20618;-64
2022/03/27 12:52:45;;;;;;;37.73;11.20;;;;;;;;;;5061790;28;21073;-67
2022/03/27 12:55:39;;;;;;;553.23;121.57;;;;;;;;;;5068286;28;20225;-66
2022/03/27 12:58:11;;;;;;;326.43;72.47;;;;;;;;;;5051490;28;20209;-68
2022/03/27 13:00:45;;;;;;;248.37;54.70;;;;;;;;;;5047553;28;20201;-69
2022/03/27 13:03:19;;;;;;;169.07;37.27;;;;;;;;;;5062799;28;20677;-69
2022/03/27 13:05:56;;;;;;;150.40;35.90;;;;;;;;;;5067084;28;20259;-67
2022/03/27 13:08:29;;;;;;;142.33;32.40;;;;;;;;;;5066903;28;20186;-67
2022/03/27 13:11:00;;;;;;;107.27;27.93;;;;;;;;;;5045772;28;20246;-66
2022/03/27 13:13:48;;;;;;;78.47;23.00;;;;;;;;;;5061057;28;20240;-67
2022/03/27 13:16:29;;;;;;;58.60;19.77;;;;;;;;;;5066906;28;20204;-68
2022/03/27 13:19:04;;;;;;;66.17;19.33;;;;;;;;;;5064342;28;20197;-68
2022/03/27 13:21:52;;;;;;;56.53;19.47;;;;;;;;;;5068021;28;20189;-69
2022/03/27 13:24:26;;;;;;;49.90;17.13;;;;;;;;;;5068447;28;20193;-68
2022/03/27 13:27:03;;;;;;;42.03;15.83;;;;;;;;;;5045372;28;20211;-68
2022/03/27 13:29:38;;;;;;;38.90;13.90;;;;;;;;;;5068100;28;20194;-68
2022/03/27 13:32:10;;;;;;;36.53;12.67;;;;;;;;;;5047046;28;20186;-69
2022/03/27 13:34:39;;;;;;;25.53;11.50;;;;;;;;;;5066827;28;20197;-68
2022/03/27 13:37:08;;;;;;;27.80;10.93;;;;;;;;;;5067050;28;20190;-68
2022/03/27 13:39:40;;;;;;;27.57;10.10;;;;;;;;;;5066229;28;20210;-69
2022/03/27 13:45:08;;;;;;;17.93;8.37;;;;;;;;;;5048023;28;20199;-69
2022/03/27 13:47:37;;;;;;;24.13;8.83;;;;;;;;;;5069557;28;20193;-67
2022/03/27 13:50:06;;;;;;;15.47;7.73;;;;;;;;;;5048341;28;20232;-67
2022/03/27 13:52:34;;;;;;;14.10;8.37;;;;;;;;;;5066235;28;20780;-68
2022/03/27 13:55:05;;;;;;;12.47;7.43;;;;;;;;;;5062313;28;20213;-67
2022/03/27 13:57:38;;;;;;;11.03;7.40;;;;;;;;;;5069892;28;20271;-66
2022/03/27 14:00:08;;;;;;;15.50;7.30;;;;;;;;;;5050459;28;20623;-66
2022/03/27 14:02:52;;;;;;;10.50;6.70;;;;;;;;;;5060083;28;20650;-67
2022/03/27 14:05:23;;;;;;;13.37;7.07;;;;;;;;;;5066477;28;20615;-68
2022/03/27 14:07:55;;;;;;;10.43;6.60;;;;;;;;;;5067904;28;20202;-66
2022/03/27 14:10:28;;;;;;;9.30;6.57;;;;;;;;;;5068780;28;20227;-67
2022/03/27 14:13:03;;;;;;;11.97;6.70;;;;;;;;;;5068465;28;20189;-66
2022/03/27 14:15:34;;;;;;;8.57;5.97;;;;;;;;;;5070392;28;20196;-66
2022/03/27 14:18:04;;;;;;;9.70;6.50;;;;;;;;;;5050589;28;20296;-66
2022/03/27 14:20:34;;;;;;;6.80;5.30;;;;;;;;;;5053716;28;20204;-66
2022/03/27 14:23:02;;;;;;;7.70;5.77;;;;;;;;;;5066335;28;20205;-67
2022/03/27 14:25:31;;;;;;;8.60;5.60;;;;;;;;;;5068068;28;20202;-67
2022/03/27 14:28:02;;;;;;;8.10;5.13;;;;;;;;;;5069342;28;20511;-66
2022/03/27 14:30:35;;;;;;;10.40;5.23;;;;;;;;;;5066092;28;20237;-67
2022/03/27 14:33:07;;;;;;;9.00;5.57;;;;;;;;;;5063859;28;20198;-67
2022/03/27 14:35:41;;;;;;;6.57;4.83;;;;;;;;;;5068368;28;20198;-66
2022/03/27 14:38:10;;;;;;;7.23;4.90;;;;;;;;;;5066333;28;20197;-66
2022/03/27 14:40:41;;;;;;;8.43;4.90;;;;;;;;;;5066100;28;20210;-66
2022/03/27 14:43:11;;;;;;;6.17;4.93;;;;;;;;;;5063273;28;20277;-66
2022/03/27 14:45:43;;;;;;;5.97;4.97;;;;;;;;;;5057318;28;20201;-66
2022/03/27 14:48:11;;;;;;;8.27;5.07;;;;;;;;;;5065683;28;20590;-66
2022/03/27 14:50:40;;;;;;;5.80;5.03;;;;;;;;;;5069016;28;20545;-66
2022/03/27 14:53:10;;;;;;;5.50;4.90;;;;;;;;;;5042266;28;20965;-66
2022/03/27 14:56:00;;;;;;;5.63;4.90;;;;;;;;;;5047563;28;20620;-65
2022/03/27 14:58:32;;;;;;;6.03;4.70;;;;;;;;;;5045047;28;20205;-65
2022/03/27 15:01:02;;;;;;;6.00;4.50;;;;;;;;;;5043409;28;20260;-66
2022/03/27 15:03:37;;;;;;;5.47;4.30;;;;;;;;;;5022765;28;20202;-67
2022/03/27 15:06:09;;;;;;;5.97;4.40;;;;;;;;;;5041590;28;21292;-66
2022/03/27 15:08:44;;;;;;;4.83;3.90;;;;;;;;;;5045465;28;20190;-66
2022/03/27 15:11:24;;;;;;;4.47;3.80;;;;;;;;;;5041475;28;20222;-66
2022/03/27 15:13:56;;;;;;;5.77;3.73;;;;;;;;;;5027760;28;20199;-66
2022/03/27 15:16:27;;;;;;;5.13;3.57;;;;;;;;;;5043777;28;20646;-67
2022/03/27 15:18:57;;;;;;;5.13;3.83;;;;;;;;;;5039381;28;20773;-66
2022/03/27 15:21:29;;;;;;;5.40;3.57;;;;;;;;;;5040538;28;20592;-66